sensor_id;sensor_type;location;lat;lon;timestamp;P1;durP1;ratioP1;P2;durP2;ratioP2
12745;SDS011;6437;53.686;10.030;2023-03-14T00:00:53;16.83;;;1.35;;
12745;SDS011;6437;53.686;10.030;2023-03-14T00:02:55;12.32;;;2.22;;
12745;SDS011;6437;53.686;10.030;2023-03-14T00:04:56;15.85;;;2.88;;
12745;SDS011;6437;53.686;10.030;2023-03-14T00:06:58;12.50;;;1.80;;
12745;SDS011;6437;53.686;10.030;2023-03-14T00:09:01;14.50;;;2.70;;
12745;SDS011;6437;53.686;10.030;2023-03-14T00:11:04;13.05;;;2.05;;
12745;SDS011;6437;53.686;10.030;2023-03-14T00:13:06;15.75;;;1.33;;
12745;SDS011;6437;53.686;10.030;2023-03-14T00:15:09;10.50;;;1.15;;
12745;SDS011;6437;53.686;10.030;2023-03-14T00:17:11;13.77;;;2.90;;
12745;SDS011;6437;53.686;10.030;2023-03-14T00:19:13;13.68;;;1.95;;
12745;SDS011;6437;53.686;10.030;2023-03-14T00:21:15;10.73;;;1.33;;
12745;SDS011;6437;53.686;10.030;2023-03-14T00:23:17;10.57;;;1.75;;
12745;SDS011;6437;53.686;10.030;2023-03-14T00:25:20;10.93;;;1.88;;
12745;SDS011;6437;53.686;10.030;2023-03-14T00:27:22;5.20;;;1.50;;
12745;SDS011;6437;53.686;10.030;2023-03-14T00:29:24;15.93;;;2.80;;
12745;SDS011;6437;53.686;10.030;2023-03-14T00:31:25;9.10;;;1.50;;
12745;SDS011;6437;53.686;10.030;2023-03-14T00:33:27;10.25;;;1.40;;
12745;SDS011;6437;53.686;10.030;2023-03-14T00:35:29;15.25;;;1.38;;
12745;SDS011;6437;53.686;10.030;2023-03-14T00:37:31;8.57;;;1.67;;
12745;SDS011;6437;53.686;10.030;2023-03-14T00:39:32;9.85;;;1.73;;
12745;SDS011;6437;53.686;10.030;2023-03-14T00:41:35;8.15;;;1.60;;
12745;SDS011;6437;53.686;10.030;2023-03-14T00:43:37;9.45;;;1.55;;
12745;SDS011;6437;53.686;10.030;2023-03-14T00:45:40;15.88;;;1.42;;
12745;SDS011;6437;53.686;10.030;2023-03-14T00:47:41;13.90;;;2.15;;
12745;SDS011;6437;53.686;10.030;2023-03-14T00:49:45;15.02;;;1.45;;
12745;SDS011;6437;53.686;10.030;2023-03-14T00:51:47;13.80;;;2.05;;
12745;SDS011;6437;53.686;10.030;2023-03-14T00:53:49;21.80;;;2.60;;
12745;SDS011;6437;53.686;10.030;2023-03-14T00:55:51;14.45;;;2.20;;
12745;SDS011;6437;53.686;10.030;2023-03-14T00:57:54;16.95;;;2.65;;
12745;SDS011;6437;53.686;10.030;2023-03-14T00:59:56;21.55;;;2.35;;
12745;SDS011;6437;53.686;10.030;2023-03-14T01:01:58;17.25;;;2.47;;
12745;SDS011;6437;53.686;10.030;2023-03-14T01:04:00;15.95;;;2.13;;
12745;SDS011;6437;53.686;10.030;2023-03-14T01:06:09;14.07;;;2.08;;
12745;SDS011;6437;53.686;10.030;2023-03-14T01:08:12;13.07;;;2.08;;
12745;SDS011;6437;53.686;10.030;2023-03-14T01:10:14;14.45;;;1.95;;
12745;SDS011;6437;53.686;10.030;2023-03-14T01:14:19;7.13;;;1.90;;
12745;SDS011;6437;53.686;10.030;2023-03-14T01:16:21;16.95;;;2.10;;
12745;SDS011;6437;53.686;10.030;2023-03-14T01:18:24;18.30;;;3.70;;
12745;SDS011;6437;53.686;10.030;2023-03-14T01:20:26;16.70;;;3.10;;
12745;SDS011;6437;53.686;10.030;2023-03-14T01:22:28;22.60;;;3.20;;
12745;SDS011;6437;53.686;10.030;2023-03-14T01:24:29;14.73;;;2.13;;
12745;SDS011;6437;53.686;10.030;2023-03-14T01:26:32;10.98;;;2.10;;
12745;SDS011;6437;53.686;10.030;2023-03-14T01:28:44;15.65;;;2.05;;
12745;SDS011;6437;53.686;10.030;2023-03-14T01:30:48;12.90;;;2.08;;
12745;SDS011;6437;53.686;10.030;2023-03-14T01:32:50;19.02;;;2.50;;
12745;SDS011;6437;53.686;10.030;2023-03-14T01:34:52;12.63;;;2.95;;
12745;SDS011;6437;53.686;10.030;2023-03-14T01:36:54;11.50;;;2.05;;
12745;SDS011;6437;53.686;10.030;2023-03-14T01:38:56;11.63;;;1.80;;
12745;SDS011;6437;53.686;10.030;2023-03-14T01:40:57;14.70;;;2.70;;
12745;SDS011;6437;53.686;10.030;2023-03-14T01:43:05;17.10;;;1.92;;
12745;SDS011;6437;53.686;10.030;2023-03-14T01:47:54;13.75;;;2.13;;
12745;SDS011;6437;53.686;10.030;2023-03-14T01:49:57;20.33;;;1.98;;
12745;SDS011;6437;53.686;10.030;2023-03-14T01:52:03;16.55;;;3.40;;
12745;SDS011;6437;53.686;10.030;2023-03-14T01:54:09;16.85;;;2.72;;
12745;SDS011;6437;53.686;10.030;2023-03-14T01:56:15;15.90;;;2.10;;
12745;SDS011;6437;53.686;10.030;2023-03-14T01:58:19;19.58;;;3.03;;
12745;SDS011;6437;53.686;10.030;2023-03-14T02:00:22;31.27;;;3.20;;
12745;SDS011;6437;53.686;10.030;2023-03-14T02:02:24;10.60;;;2.08;;
12745;SDS011;6437;53.686;10.030;2023-03-14T02:04:30;14.90;;;2.25;;
12745;SDS011;6437;53.686;10.030;2023-03-14T02:06:35;22.30;;;2.40;;
12745;SDS011;6437;53.686;10.030;2023-03-14T02:08:43;13.32;;;2.00;;
12745;SDS011;6437;53.686;10.030;2023-03-14T02:10:48;17.80;;;2.55;;
12745;SDS011;6437;53.686;10.030;2023-03-14T02:12:51;10.23;;;1.52;;
12745;SDS011;6437;53.686;10.030;2023-03-14T02:14:54;10.68;;;1.65;;
12745;SDS011;6437;53.686;10.030;2023-03-14T02:16:56;14.10;;;1.50;;
12745;SDS011;6437;53.686;10.030;2023-03-14T02:18:59;17.92;;;2.10;;
12745;SDS011;6437;53.686;10.030;2023-03-14T02:21:03;8.20;;;1.85;;
12745;SDS011;6437;53.686;10.030;2023-03-14T02:23:12;16.75;;;2.15;;
12745;SDS011;6437;53.686;10.030;2023-03-14T02:25:22;14.35;;;2.53;;
12745;SDS011;6437;53.686;10.030;2023-03-14T02:27:31;11.27;;;2.05;;
12745;SDS011;6437;53.686;10.030;2023-03-14T02:29:33;19.10;;;2.47;;
12745;SDS011;6437;53.686;10.030;2023-03-14T02:31:37;21.63;;;2.47;;
12745;SDS011;6437;53.686;10.030;2023-03-14T02:33:39;11.85;;;1.38;;
12745;SDS011;6437;53.686;10.030;2023-03-14T02:35:42;8.20;;;2.22;;
12745;SDS011;6437;53.686;10.030;2023-03-14T02:37:47;14.23;;;2.20;;
12745;SDS011;6437;53.686;10.030;2023-03-14T02:39:53;23.60;;;2.28;;
12745;SDS011;6437;53.686;10.030;2023-03-14T02:41:55;13.27;;;1.95;;
12745;SDS011;6437;53.686;10.030;2023-03-14T02:43:58;10.35;;;1.77;;
12745;SDS011;6437;53.686;10.030;2023-03-14T02:46:00;17.27;;;3.05;;
12745;SDS011;6437;53.686;10.030;2023-03-14T02:48:04;18.70;;;2.78;;
12745;SDS011;6437;53.686;10.030;2023-03-14T02:50:12;16.55;;;2.70;;
12745;SDS011;6437;53.686;10.030;2023-03-14T02:52:16;10.82;;;2.17;;
12745;SDS011;6437;53.686;10.030;2023-03-14T02:54:18;14.65;;;2.92;;
12745;SDS011;6437;53.686;10.030;2023-03-14T02:56:21;12.38;;;2.20;;
12745;SDS011;6437;53.686;10.030;2023-03-14T02:58:23;11.10;;;1.98;;
12745;SDS011;6437;53.686;10.030;2023-03-14T03:00:27;5.85;;;1.63;;
12745;SDS011;6437;53.686;10.030;2023-03-14T03:02:30;11.45;;;2.53;;
12745;SDS011;6437;53.686;10.030;2023-03-14T03:04:32;11.90;;;2.42;;
12745;SDS011;6437;53.686;10.030;2023-03-14T03:06:34;11.48;;;2.42;;
12745;SDS011;6437;53.686;10.030;2023-03-14T03:08:35;11.63;;;2.10;;
12745;SDS011;6437;53.686;10.030;2023-03-14T03:10:37;15.02;;;2.38;;
12745;SDS011;6437;53.686;10.030;2023-03-14T03:12:39;15.20;;;2.85;;
12745;SDS011;6437;53.686;10.030;2023-03-14T03:14:41;15.18;;;2.13;;
12745;SDS011;6437;53.686;10.030;2023-03-14T03:16:44;14.93;;;2.08;;
12745;SDS011;6437;53.686;10.030;2023-03-14T03:18:45;12.13;;;1.85;;
12745;SDS011;6437;53.686;10.030;2023-03-14T03:20:47;10.05;;;1.70;;
12745;SDS011;6437;53.686;10.030;2023-03-14T03:22:49;12.57;;;2.03;;
12745;SDS011;6437;53.686;10.030;2023-03-14T03:24:51;7.35;;;2.03;;
12745;SDS011;6437;53.686;10.030;2023-03-14T03:26:52;11.32;;;2.10;;
12745;SDS011;6437;53.686;10.030;2023-03-14T03:28:54;14.48;;;1.75;;
12745;SDS011;6437;53.686;10.030;2023-03-14T03:30:56;8.90;;;2.00;;
12745;SDS011;6437;53.686;10.030;2023-03-14T03:32:59;9.88;;;2.17;;
12745;SDS011;6437;53.686;10.030;2023-03-14T03:35:01;13.80;;;2.80;;
12745;SDS011;6437;53.686;10.030;2023-03-14T03:37:03;9.60;;;1.75;;
12745;SDS011;6437;53.686;10.030;2023-03-14T03:39:05;12.23;;;1.90;;
12745;SDS011;6437;53.686;10.030;2023-03-14T03:41:07;12.15;;;1.52;;
12745;SDS011;6437;53.686;10.030;2023-03-14T03:43:09;15.45;;;2.15;;
12745;SDS011;6437;53.686;10.030;2023-03-14T03:45:10;11.32;;;2.17;;
12745;SDS011;6437;53.686;10.030;2023-03-14T03:47:12;10.65;;;2.08;;
12745;SDS011;6437;53.686;10.030;2023-03-14T03:49:15;11.18;;;2.30;;
12745;SDS011;6437;53.686;10.030;2023-03-14T03:51:17;12.50;;;1.42;;
12745;SDS011;6437;53.686;10.030;2023-03-14T03:53:19;9.45;;;1.70;;
12745;SDS011;6437;53.686;10.030;2023-03-14T03:55:20;9.88;;;2.08;;
12745;SDS011;6437;53.686;10.030;2023-03-14T03:57:22;11.95;;;1.80;;
12745;SDS011;6437;53.686;10.030;2023-03-14T03:59:24;6.55;;;1.23;;
12745;SDS011;6437;53.686;10.030;2023-03-14T04:01:26;11.27;;;2.10;;
12745;SDS011;6437;53.686;10.030;2023-03-14T04:03:28;8.25;;;2.08;;
12745;SDS011;6437;53.686;10.030;2023-03-14T04:05:31;13.70;;;1.48;;
12745;SDS011;6437;53.686;10.030;2023-03-14T04:07:34;8.93;;;2.08;;
12745;SDS011;6437;53.686;10.030;2023-03-14T04:09:37;10.40;;;2.05;;
12745;SDS011;6437;53.686;10.030;2023-03-14T04:11:39;9.65;;;1.50;;
12745;SDS011;6437;53.686;10.030;2023-03-14T04:15:43;7.38;;;0.98;;
12745;SDS011;6437;53.686;10.030;2023-03-14T04:17:44;7.30;;;1.23;;
12745;SDS011;6437;53.686;10.030;2023-03-14T04:19:46;13.35;;;2.28;;
12745;SDS011;6437;53.686;10.030;2023-03-14T04:21:52;9.30;;;1.88;;
12745;SDS011;6437;53.686;10.030;2023-03-14T04:23:53;17.20;;;2.10;;
12745;SDS011;6437;53.686;10.030;2023-03-14T04:25:55;24.48;;;3.42;;
12745;SDS011;6437;53.686;10.030;2023-03-14T04:27:57;9.68;;;1.33;;
12745;SDS011;6437;53.686;10.030;2023-03-14T04:29:59;9.77;;;2.08;;
12745;SDS011;6437;53.686;10.030;2023-03-14T04:32:00;12.32;;;1.98;;
12745;SDS011;6437;53.686;10.030;2023-03-14T04:34:02;9.70;;;1.88;;
12745;SDS011;6437;53.686;10.030;2023-03-14T04:36:04;18.55;;;2.30;;
12745;SDS011;6437;53.686;10.030;2023-03-14T04:38:08;8.63;;;1.50;;
12745;SDS011;6437;53.686;10.030;2023-03-14T04:40:11;10.85;;;2.88;;
12745;SDS011;6437;53.686;10.030;2023-03-14T04:42:13;14.90;;;1.60;;
12745;SDS011;6437;53.686;10.030;2023-03-14T04:44:15;14.77;;;3.35;;
12745;SDS011;6437;53.686;10.030;2023-03-14T04:46:17;12.15;;;2.05;;
12745;SDS011;6437;53.686;10.030;2023-03-14T04:48:19;14.93;;;2.75;;
12745;SDS011;6437;53.686;10.030;2023-03-14T04:50:20;8.88;;;1.27;;
12745;SDS011;6437;53.686;10.030;2023-03-14T04:52:22;6.60;;;0.80;;
12745;SDS011;6437;53.686;10.030;2023-03-14T04:54:25;4.90;;;0.90;;
12745;SDS011;6437;53.686;10.030;2023-03-14T04:56:27;5.03;;;0.88;;
12745;SDS011;6437;53.686;10.030;2023-03-14T04:58:29;5.07;;;0.60;;
12745;SDS011;6437;53.686;10.030;2023-03-14T05:00:31;2.40;;;0.70;;
12745;SDS011;6437;53.686;10.030;2023-03-14T05:02:33;5.18;;;0.73;;
12745;SDS011;6437;53.686;10.030;2023-03-14T05:04:35;8.25;;;0.80;;
12745;SDS011;6437;53.686;10.030;2023-03-14T05:06:37;2.60;;;0.47;;
12745;SDS011;6437;53.686;10.030;2023-03-14T05:08:39;1.58;;;0.30;;
12745;SDS011;6437;53.686;10.030;2023-03-14T05:10:43;6.13;;;0.70;;
12745;SDS011;6437;53.686;10.030;2023-03-14T05:12:44;5.47;;;0.35;;
12745;SDS011;6437;53.686;10.030;2023-03-14T05:14:46;2.90;;;0.40;;
12745;SDS011;6437;53.686;10.030;2023-03-14T05:16:48;6.28;;;0.95;;
12745;SDS011;6437;53.686;10.030;2023-03-14T05:18:50;3.25;;;0.40;;
12745;SDS011;6437;53.686;10.030;2023-03-14T05:20:51;2.45;;;0.40;;
12745;SDS011;6437;53.686;10.030;2023-03-14T05:22:53;3.17;;;0.40;;
12745;SDS011;6437;53.686;10.030;2023-03-14T05:24:55;6.78;;;0.45;;
12745;SDS011;6437;53.686;10.030;2023-03-14T05:27:00;6.25;;;0.65;;
12745;SDS011;6437;53.686;10.030;2023-03-14T05:29:02;1.95;;;0.35;;
12745;SDS011;6437;53.686;10.030;2023-03-14T05:31:05;5.88;;;0.70;;
12745;SDS011;6437;53.686;10.030;2023-03-14T05:33:07;7.22;;;0.50;;
12745;SDS011;6437;53.686;10.030;2023-03-14T05:35:09;7.13;;;0.88;;
12745;SDS011;6437;53.686;10.030;2023-03-14T05:37:11;6.50;;;0.70;;
12745;SDS011;6437;53.686;10.030;2023-03-14T05:39:13;4.13;;;0.50;;
12745;SDS011;6437;53.686;10.030;2023-03-14T05:41:15;4.32;;;0.55;;
12745;SDS011;6437;53.686;10.030;2023-03-14T05:43:18;3.03;;;0.65;;
12745;SDS011;6437;53.686;10.030;2023-03-14T05:45:20;2.30;;;0.40;;
12745;SDS011;6437;53.686;10.030;2023-03-14T05:47:21;3.47;;;0.82;;
12745;SDS011;6437;53.686;10.030;2023-03-14T05:49:23;4.68;;;0.60;;
12745;SDS011;6437;53.686;10.030;2023-03-14T05:53:27;3.80;;;0.40;;
12745;SDS011;6437;53.686;10.030;2023-03-14T05:55:30;9.43;;;1.33;;
12745;SDS011;6437;53.686;10.030;2023-03-14T05:57:32;4.10;;;0.75;;
12745;SDS011;6437;53.686;10.030;2023-03-14T05:59:35;6.00;;;0.85;;
12745;SDS011;6437;53.686;10.030;2023-03-14T06:01:36;8.48;;;1.27;;
12745;SDS011;6437;53.686;10.030;2023-03-14T06:03:38;6.10;;;0.70;;
12745;SDS011;6437;53.686;10.030;2023-03-14T06:05:40;7.93;;;1.33;;
12745;SDS011;6437;53.686;10.030;2023-03-14T06:07:41;6.47;;;0.90;;
12745;SDS011;6437;53.686;10.030;2023-03-14T06:09:43;4.10;;;0.80;;
12745;SDS011;6437;53.686;10.030;2023-03-14T06:11:46;8.48;;;1.27;;
12745;SDS011;6437;53.686;10.030;2023-03-14T06:13:48;5.13;;;0.95;;
12745;SDS011;6437;53.686;10.030;2023-03-14T06:15:51;7.70;;;1.15;;
12745;SDS011;6437;53.686;10.030;2023-03-14T06:17:53;7.10;;;1.42;;
12745;SDS011;6437;53.686;10.030;2023-03-14T06:19:55;7.03;;;1.67;;
12745;SDS011;6437;53.686;10.030;2023-03-14T06:21:57;6.57;;;0.95;;
12745;SDS011;6437;53.686;10.030;2023-03-14T06:23:58;9.77;;;1.80;;
12745;SDS011;6437;53.686;10.030;2023-03-14T06:26:00;11.52;;;1.58;;
12745;SDS011;6437;53.686;10.030;2023-03-14T06:28:02;7.22;;;1.48;;
12745;SDS011;6437;53.686;10.030;2023-03-14T06:30:04;8.18;;;2.03;;
12745;SDS011;6437;53.686;10.030;2023-03-14T06:32:08;9.32;;;1.70;;
12745;SDS011;6437;53.686;10.030;2023-03-14T06:34:10;8.82;;;2.75;;
12745;SDS011;6437;53.686;10.030;2023-03-14T06:36:12;10.95;;;3.10;;
12745;SDS011;6437;53.686;10.030;2023-03-14T06:38:14;11.05;;;2.42;;
12745;SDS011;6437;53.686;10.030;2023-03-14T06:40:16;9.88;;;2.13;;
12745;SDS011;6437;53.686;10.030;2023-03-14T06:42:18;10.02;;;2.05;;
12745;SDS011;6437;53.686;10.030;2023-03-14T06:44:20;7.88;;;2.28;;
12745;SDS011;6437;53.686;10.030;2023-03-14T06:46:21;14.52;;;2.83;;
12745;SDS011;6437;53.686;10.030;2023-03-14T06:48:25;9.65;;;2.80;;
12745;SDS011;6437;53.686;10.030;2023-03-14T06:50:26;7.47;;;1.95;;
12745;SDS011;6437;53.686;10.030;2023-03-14T06:52:28;10.10;;;2.70;;
12745;SDS011;6437;53.686;10.030;2023-03-14T06:54:30;9.13;;;2.75;;
12745;SDS011;6437;53.686;10.030;2023-03-14T06:56:32;14.57;;;2.83;;
12745;SDS011;6437;53.686;10.030;2023-03-14T06:58:34;12.75;;;2.38;;
12745;SDS011;6437;53.686;10.030;2023-03-14T07:00:36;15.75;;;3.05;;
12745;SDS011;6437;53.686;10.030;2023-03-14T07:02:38;11.27;;;2.15;;
12745;SDS011;6437;53.686;10.030;2023-03-14T07:04:42;14.95;;;2.92;;
12745;SDS011;6437;53.686;10.030;2023-03-14T07:06:44;12.82;;;2.47;;
12745;SDS011;6437;53.686;10.030;2023-03-14T07:08:46;19.13;;;2.50;;
12745;SDS011;6437;53.686;10.030;2023-03-14T07:10:49;12.18;;;1.75;;
12745;SDS011;6437;53.686;10.030;2023-03-14T07:12:51;9.57;;;1.95;;
12745;SDS011;6437;53.686;10.030;2023-03-14T07:14:53;20.65;;;3.33;;
12745;SDS011;6437;53.686;10.030;2023-03-14T07:16:55;12.60;;;2.95;;
12745;SDS011;6437;53.686;10.030;2023-03-14T07:18:57;15.90;;;2.75;;
12745;SDS011;6437;53.686;10.030;2023-03-14T07:21:00;10.45;;;2.05;;
12745;SDS011;6437;53.686;10.030;2023-03-14T07:23:02;15.52;;;2.75;;
12745;SDS011;6437;53.686;10.030;2023-03-14T07:25:04;10.65;;;1.85;;
12745;SDS011;6437;53.686;10.030;2023-03-14T07:27:06;9.50;;;1.17;;
12745;SDS011;6437;53.686;10.030;2023-03-14T07:29:08;14.35;;;1.92;;
12745;SDS011;6437;53.686;10.030;2023-03-14T07:31:09;13.45;;;2.17;;
12745;SDS011;6437;53.686;10.030;2023-03-14T07:33:11;8.20;;;1.70;;
12745;SDS011;6437;53.686;10.030;2023-03-14T07:35:13;11.30;;;0.98;;
12745;SDS011;6437;53.686;10.030;2023-03-14T07:37:16;14.55;;;1.13;;
12745;SDS011;6437;53.686;10.030;2023-03-14T07:39:18;9.65;;;1.13;;
12745;SDS011;6437;53.686;10.030;2023-03-14T07:41:21;11.93;;;1.27;;
12745;SDS011;6437;53.686;10.030;2023-03-14T07:43:23;9.57;;;1.13;;
12745;SDS011;6437;53.686;10.030;2023-03-14T07:45:24;8.82;;;1.50;;
12745;SDS011;6437;53.686;10.030;2023-03-14T07:47:26;7.85;;;1.00;;
12745;SDS011;6437;53.686;10.030;2023-03-14T07:49:28;12.63;;;1.35;;
12745;SDS011;6437;53.686;10.030;2023-03-14T07:51:30;11.23;;;1.40;;
12745;SDS011;6437;53.686;10.030;2023-03-14T07:53:33;14.82;;;1.75;;
12745;SDS011;6437;53.686;10.030;2023-03-14T07:55:35;12.00;;;1.38;;
12745;SDS011;6437;53.686;10.030;2023-03-14T07:57:37;10.20;;;1.38;;
12745;SDS011;6437;53.686;10.030;2023-03-14T07:59:39;7.07;;;0.90;;
12745;SDS011;6437;53.686;10.030;2023-03-14T08:01:40;9.88;;;1.15;;
12745;SDS011;6437;53.686;10.030;2023-03-14T08:03:42;9.27;;;1.50;;
12745;SDS011;6437;53.686;10.030;2023-03-14T08:05:46;10.18;;;1.00;;
12745;SDS011;6437;53.686;10.030;2023-03-14T08:07:49;8.98;;;1.20;;
12745;SDS011;6437;53.686;10.030;2023-03-14T08:09:52;7.85;;;0.95;;
12745;SDS011;6437;53.686;10.030;2023-03-14T08:11:53;11.95;;;1.00;;
12745;SDS011;6437;53.686;10.030;2023-03-14T08:13:55;6.03;;;1.33;;
12745;SDS011;6437;53.686;10.030;2023-03-14T08:15:57;5.43;;;0.70;;
12745;SDS011;6437;53.686;10.030;2023-03-14T08:17:59;7.45;;;1.23;;
12745;SDS011;6437;53.686;10.030;2023-03-14T08:20:00;9.35;;;0.88;;
12745;SDS011;6437;53.686;10.030;2023-03-14T08:22:06;9.50;;;1.00;;
12745;SDS011;6437;53.686;10.030;2023-03-14T08:24:08;6.15;;;0.77;;
12745;SDS011;6437;53.686;10.030;2023-03-14T08:26:12;5.45;;;0.68;;
12745;SDS011;6437;53.686;10.030;2023-03-14T08:28:13;8.13;;;0.90;;
12745;SDS011;6437;53.686;10.030;2023-03-14T08:30:16;8.32;;;0.63;;
12745;SDS011;6437;53.686;10.030;2023-03-14T08:32:18;10.50;;;1.17;;
12745;SDS011;6437;53.686;10.030;2023-03-14T08:34:20;9.38;;;1.67;;
12745;SDS011;6437;53.686;10.030;2023-03-14T08:36:22;5.50;;;0.60;;
12745;SDS011;6437;53.686;10.030;2023-03-14T08:38:23;12.48;;;0.85;;
12745;SDS011;6437;53.686;10.030;2023-03-14T08:40:25;4.05;;;0.75;;
12745;SDS011;6437;53.686;10.030;2023-03-14T08:42:28;4.68;;;0.93;;
12745;SDS011;6437;53.686;10.030;2023-03-14T08:44:30;10.18;;;1.58;;
12745;SDS011;6437;53.686;10.030;2023-03-14T08:46:32;4.97;;;0.55;;
12745;SDS011;6437;53.686;10.030;2023-03-14T08:48:34;5.93;;;0.93;;
12745;SDS011;6437;53.686;10.030;2023-03-14T08:50:35;3.85;;;0.68;;
12745;SDS011;6437;53.686;10.030;2023-03-14T08:52:37;11.25;;;0.95;;
12745;SDS011;6437;53.686;10.030;2023-03-14T08:54:40;7.43;;;0.77;;
12745;SDS011;6437;53.686;10.030;2023-03-14T08:56:42;8.52;;;0.90;;
12745;SDS011;6437;53.686;10.030;2023-03-14T08:58:45;12.65;;;1.20;;
12745;SDS011;6437;53.686;10.030;2023-03-14T09:00:47;7.68;;;0.65;;
12745;SDS011;6437;53.686;10.030;2023-03-14T09:02:48;10.10;;;0.88;;
12745;SDS011;6437;53.686;10.030;2023-03-14T09:04:51;10.82;;;0.95;;
12745;SDS011;6437;53.686;10.030;2023-03-14T09:06:53;17.83;;;1.67;;
12745;SDS011;6437;53.686;10.030;2023-03-14T09:08:54;10.65;;;0.77;;
12745;SDS011;6437;53.686;10.030;2023-03-14T09:10:57;13.25;;;2.22;;
12745;SDS011;6437;53.686;10.030;2023-03-14T09:12:59;12.55;;;1.15;;
12745;SDS011;6437;53.686;10.030;2023-03-14T09:15:02;12.48;;;1.63;;
12745;SDS011;6437;53.686;10.030;2023-03-14T09:17:04;9.90;;;1.45;;
12745;SDS011;6437;53.686;10.030;2023-03-14T09:21:08;11.05;;;1.23;;
12745;SDS011;6437;53.686;10.030;2023-03-14T09:23:10;12.32;;;1.27;;
12745;SDS011;6437;53.686;10.030;2023-03-14T09:25:12;10.32;;;0.93;;
12745;SDS011;6437;53.686;10.030;2023-03-14T09:27:13;9.32;;;1.45;;
12745;SDS011;6437;53.686;10.030;2023-03-14T09:29:15;10.60;;;1.38;;
12745;SDS011;6437;53.686;10.030;2023-03-14T09:31:18;7.68;;;1.05;;
12745;SDS011;6437;53.686;10.030;2023-03-14T09:33:20;11.77;;;1.40;;
12745;SDS011;6437;53.686;10.030;2023-03-14T09:35:22;10.07;;;1.38;;
12745;SDS011;6437;53.686;10.030;2023-03-14T09:37:24;16.67;;;2.22;;
12745;SDS011;6437;53.686;10.030;2023-03-14T09:39:26;12.50;;;1.85;;
12745;SDS011;6437;53.686;10.030;2023-03-14T09:41:28;12.43;;;1.50;;
12745;SDS011;6437;53.686;10.030;2023-03-14T09:43:33;10.45;;;1.75;;
12745;SDS011;6437;53.686;10.030;2023-03-14T09:45:38;8.40;;;1.23;;
12745;SDS011;6437;53.686;10.030;2023-03-14T09:47:44;12.98;;;1.48;;
12745;SDS011;6437;53.686;10.030;2023-03-14T09:49:47;8.77;;;0.73;;
12745;SDS011;6437;53.686;10.030;2023-03-14T09:51:50;5.80;;;0.47;;
12745;SDS011;6437;53.686;10.030;2023-03-14T09:53:55;3.80;;;0.32;;
12745;SDS011;6437;53.686;10.030;2023-03-14T09:55:57;1.42;;;0.30;;
12745;SDS011;6437;53.686;10.030;2023-03-14T09:58:00;5.00;;;0.95;;
12745;SDS011;6437;53.686;10.030;2023-03-14T10:00:10;3.88;;;0.28;;
12745;SDS011;6437;53.686;10.030;2023-03-14T10:02:18;12.77;;;0.50;;
12745;SDS011;6437;53.686;10.030;2023-03-14T10:04:22;3.13;;;0.32;;
12745;SDS011;6437;53.686;10.030;2023-03-14T10:06:26;4.28;;;0.30;;
12745;SDS011;6437;53.686;10.030;2023-03-14T10:08:30;4.40;;;0.50;;
12745;SDS011;6437;53.686;10.030;2023-03-14T10:10:31;7.63;;;0.38;;
12745;SDS011;6437;53.686;10.030;2023-03-14T10:12:34;2.58;;;0.30;;
12745;SDS011;6437;53.686;10.030;2023-03-14T10:14:44;1.08;;;0.30;;
12745;SDS011;6437;53.686;10.030;2023-03-14T10:16:47;1.42;;;0.20;;
12745;SDS011;6437;53.686;10.030;2023-03-14T10:18:49;2.60;;;0.40;;
12745;SDS011;6437;53.686;10.030;2023-03-14T10:21:01;5.25;;;0.30;;
12745;SDS011;6437;53.686;10.030;2023-03-14T10:23:05;2.17;;;0.32;;
12745;SDS011;6437;53.686;10.030;2023-03-14T10:25:25;1.85;;;0.20;;
12745;SDS011;6437;53.686;10.030;2023-03-14T10:27:29;1.95;;;0.40;;
12745;SDS011;6437;53.686;10.030;2023-03-14T10:29:33;2.83;;;0.22;;
12745;SDS011;6437;53.686;10.030;2023-03-14T10:31:45;1.75;;;0.28;;
12745;SDS011;6437;53.686;10.030;2023-03-14T10:33:57;3.28;;;0.52;;
12745;SDS011;6437;53.686;10.030;2023-03-14T10:36:02;3.22;;;0.20;;
12745;SDS011;6437;53.686;10.030;2023-03-14T10:38:05;2.88;;;0.25;;
12745;SDS011;6437;53.686;10.030;2023-03-14T10:40:13;1.00;;;0.20;;
12745;SDS011;6437;53.686;10.030;2023-03-14T10:42:17;4.13;;;0.20;;
12745;SDS011;6437;53.686;10.030;2023-03-14T10:44:23;4.47;;;0.28;;
12745;SDS011;6437;53.686;10.030;2023-03-14T10:46:27;0.80;;;0.20;;
12745;SDS011;6437;53.686;10.030;2023-03-14T10:48:32;1.80;;;0.22;;
12745;SDS011;6437;53.686;10.030;2023-03-14T10:50:36;1.38;;;0.20;;
12745;SDS011;6437;53.686;10.030;2023-03-14T10:52:39;2.25;;;0.30;;
12745;SDS011;6437;53.686;10.030;2023-03-14T10:54:50;0.98;;;0.20;;
12745;SDS011;6437;53.686;10.030;2023-03-14T10:56:56;2.85;;;0.85;;
12745;SDS011;6437;53.686;10.030;2023-03-14T10:58:59;2.95;;;0.30;;
12745;SDS011;6437;53.686;10.030;2023-03-14T11:01:03;0.77;;;0.20;;
12745;SDS011;6437;53.686;10.030;2023-03-14T11:03:14;1.85;;;0.30;;
12745;SDS011;6437;53.686;10.030;2023-03-14T11:05:21;4.03;;;0.35;;
12745;SDS011;6437;53.686;10.030;2023-03-14T11:07:28;2.47;;;0.20;;
12745;SDS011;6437;53.686;10.030;2023-03-14T11:09:36;1.17;;;0.20;;
12745;SDS011;6437;53.686;10.030;2023-03-14T11:11:44;0.60;;;0.20;;
12745;SDS011;6437;53.686;10.030;2023-03-14T11:13:54;4.50;;;0.30;;
12745;SDS011;6437;53.686;10.030;2023-03-14T11:16:07;0.80;;;0.10;;
12745;SDS011;6437;53.686;10.030;2023-03-14T11:20:51;1.50;;;0.20;;
12745;SDS011;6437;53.686;10.030;2023-03-14T11:22:58;7.97;;;0.60;;
12745;SDS011;6437;53.686;10.030;2023-03-14T11:25:18;4.80;;;0.40;;
12745;SDS011;6437;53.686;10.030;2023-03-14T11:27:28;6.10;;;0.40;;
12745;SDS011;6437;53.686;10.030;2023-03-14T11:29:37;6.35;;;0.30;;
12745;SDS011;6437;53.686;10.030;2023-03-14T11:31:41;10.40;;;0.50;;
12745;SDS011;6437;53.686;10.030;2023-03-14T11:33:47;6.88;;;0.60;;
12745;SDS011;6437;53.686;10.030;2023-03-14T11:35:54;8.55;;;0.50;;
12745;SDS011;6437;53.686;10.030;2023-03-14T11:38:03;12.70;;;0.63;;
12745;SDS011;6437;53.686;10.030;2023-03-14T11:40:13;7.13;;;0.43;;
12745;SDS011;6437;53.686;10.030;2023-03-14T11:42:19;5.72;;;1.65;;
12745;SDS011;6437;53.686;10.030;2023-03-14T11:44:23;6.03;;;0.63;;
12745;SDS011;6437;53.686;10.030;2023-03-14T11:46:31;6.22;;;0.40;;
12745;SDS011;6437;53.686;10.030;2023-03-14T11:48:39;8.10;;;0.70;;
12745;SDS011;6437;53.686;10.030;2023-03-14T11:50:44;8.63;;;0.40;;
12745;SDS011;6437;53.686;10.030;2023-03-14T11:52:50;10.02;;;0.32;;
12745;SDS011;6437;53.686;10.030;2023-03-14T11:54:57;8.18;;;0.30;;
12745;SDS011;6437;53.686;10.030;2023-03-14T11:57:03;4.15;;;0.40;;
12745;SDS011;6437;53.686;10.030;2023-03-14T11:59:09;7.18;;;0.38;;
12745;SDS011;6437;53.686;10.030;2023-03-14T12:01:16;6.15;;;0.40;;
12745;SDS011;6437;53.686;10.030;2023-03-14T12:03:24;22.73;;;1.00;;
12745;SDS011;6437;53.686;10.030;2023-03-14T12:05:38;5.50;;;0.57;;
12745;SDS011;6437;53.686;10.030;2023-03-14T12:07:47;18.80;;;0.80;;
12745;SDS011;6437;53.686;10.030;2023-03-14T12:10:05;6.90;;;0.73;;
12745;SDS011;6437;53.686;10.030;2023-03-14T12:14:19;12.65;;;1.50;;
12745;SDS011;6437;53.686;10.030;2023-03-14T12:16:34;12.23;;;0.98;;
12745;SDS011;6437;53.686;10.030;2023-03-14T12:18:38;8.25;;;0.68;;
12745;SDS011;6437;53.686;10.030;2023-03-14T12:20:41;10.98;;;0.90;;
12745;SDS011;6437;53.686;10.030;2023-03-14T12:24:58;12.93;;;0.50;;
12745;SDS011;6437;53.686;10.030;2023-03-14T12:27:05;8.50;;;0.60;;
12745;SDS011;6437;53.686;10.030;2023-03-14T12:29:14;18.95;;;1.70;;
12745;SDS011;6437;53.686;10.030;2023-03-14T12:31:35;6.18;;;1.13;;
12745;SDS011;6437;53.686;10.030;2023-03-14T12:33:38;15.63;;;0.65;;
12745;SDS011;6437;53.686;10.030;2023-03-14T12:35:42;16.50;;;0.73;;